sensor_id;sensor_type;location;lat;lon;timestamp;P1;durP1;ratioP1;P2;durP2;ratioP2
24485;SDS011;13449;49.374;8.584;2024-03-02T00:00:20;21.30;;;9.20;;
24485;SDS011;13449;49.374;8.584;2024-03-02T00:02:48;21.05;;;9.27;;
24485;SDS011;13449;49.374;8.584;2024-03-02T00:07:54;19.55;;;8.65;;
24485;SDS011;13449;49.374;8.584;2024-03-02T00:12:56;20.75;;;8.23;;
24485;SDS011;13449;49.374;8.584;2024-03-02T00:18:11;19.58;;;8.85;;
24485;SDS011;13449;49.374;8.584;2024-03-02T00:20:40;22.70;;;8.90;;
24485;SDS011;13449;49.374;8.584;2024-03-02T00:23:09;28.08;;;10.07;;
24485;SDS011;13449;49.374;8.584;2024-03-02T00:25:44;14.77;;;8.75;;
24485;SDS011;13449;49.374;8.584;2024-03-02T00:28:23;17.85;;;8.43;;
24485;SDS011;13449;49.374;8.584;2024-03-02T00:33:34;19.88;;;9.02;;
24485;SDS011;13449;49.374;8.584;2024-03-02T00:36:03;21.50;;;9.80;;
24485;SDS011;13449;49.374;8.584;2024-03-02T00:38:30;23.20;;;10.18;;
24485;SDS011;13449;49.374;8.584;2024-03-02T00:40:58;18.00;;;8.90;;
24485;SDS011;13449;49.374;8.584;2024-03-02T00:46:33;16.88;;;8.38;;
24485;SDS011;13449;49.374;8.584;2024-03-02T00:49:01;21.67;;;9.27;;
24485;SDS011;13449;49.374;8.584;2024-03-02T00:51:33;16.55;;;7.68;;
24485;SDS011;13449;49.374;8.584;2024-03-02T00:54:07;15.90;;;8.13;;
24485;SDS011;13449;49.374;8.584;2024-03-02T00:56:35;13.57;;;8.10;;
24485;SDS011;13449;49.374;8.584;2024-03-02T00:59:02;15.15;;;8.23;;
24485;SDS011;13449;49.374;8.584;2024-03-02T01:01:29;19.35;;;9.65;;
24485;SDS011;13449;49.374;8.584;2024-03-02T01:03:58;17.88;;;8.80;;
24485;SDS011;13449;49.374;8.584;2024-03-02T01:06:24;17.75;;;8.23;;
24485;SDS011;13449;49.374;8.584;2024-03-02T01:08:53;21.33;;;9.45;;
24485;SDS011;13449;49.374;8.584;2024-03-02T01:11:20;18.38;;;8.55;;
24485;SDS011;13449;49.374;8.584;2024-03-02T01:13:50;19.10;;;8.25;;
24485;SDS011;13449;49.374;8.584;2024-03-02T01:16:17;18.42;;;8.77;;
24485;SDS011;13449;49.374;8.584;2024-03-02T01:18:43;24.33;;;8.88;;
24485;SDS011;13449;49.374;8.584;2024-03-02T01:21:10;18.25;;;8.75;;
24485;SDS011;13449;49.374;8.584;2024-03-02T01:23:37;16.05;;;8.45;;
24485;SDS011;13449;49.374;8.584;2024-03-02T01:26:04;17.05;;;7.50;;
24485;SDS011;13449;49.374;8.584;2024-03-02T01:28:30;18.30;;;9.25;;
24485;SDS011;13449;49.374;8.584;2024-03-02T01:30:57;18.48;;;8.45;;
24485;SDS011;13449;49.374;8.584;2024-03-02T01:33:24;17.33;;;6.95;;
24485;SDS011;13449;49.374;8.584;2024-03-02T01:35:50;19.67;;;8.57;;
24485;SDS011;13449;49.374;8.584;2024-03-02T01:38:17;20.60;;;9.38;;
24485;SDS011;13449;49.374;8.584;2024-03-02T01:40:43;22.08;;;8.05;;
24485;SDS011;13449;49.374;8.584;2024-03-02T01:43:13;15.38;;;7.90;;
24485;SDS011;13449;49.374;8.584;2024-03-02T01:45:39;13.88;;;7.68;;
24485;SDS011;13449;49.374;8.584;2024-03-02T01:48:06;20.83;;;9.85;;
24485;SDS011;13449;49.374;8.584;2024-03-02T01:50:34;15.65;;;8.95;;
24485;SDS011;13449;49.374;8.584;2024-03-02T01:53:02;18.13;;;7.65;;
24485;SDS011;13449;49.374;8.584;2024-03-02T01:55:29;17.27;;;8.73;;
24485;SDS011;13449;49.374;8.584;2024-03-02T01:57:57;21.35;;;9.32;;
24485;SDS011;13449;49.374;8.584;2024-03-02T02:00:24;20.25;;;8.88;;
24485;SDS011;13449;49.374;8.584;2024-03-02T02:02:52;23.17;;;9.05;;
24485;SDS011;13449;49.374;8.584;2024-03-02T02:05:19;19.45;;;9.38;;
24485;SDS011;13449;49.374;8.584;2024-03-02T02:07:46;22.83;;;9.60;;
24485;SDS011;13449;49.374;8.584;2024-03-02T02:10:12;21.58;;;9.27;;
24485;SDS011;13449;49.374;8.584;2024-03-02T02:12:39;15.20;;;8.27;;
24485;SDS011;13449;49.374;8.584;2024-03-02T02:17:53;18.55;;;8.27;;
24485;SDS011;13449;49.374;8.584;2024-03-02T02:20:20;17.13;;;8.63;;
24485;SDS011;13449;49.374;8.584;2024-03-02T02:23:02;24.08;;;8.77;;
24485;SDS011;13449;49.374;8.584;2024-03-02T02:25:31;18.15;;;8.45;;
24485;SDS011;13449;49.374;8.584;2024-03-02T02:27:58;15.27;;;8.40;;
24485;SDS011;13449;49.374;8.584;2024-03-02T02:30:29;15.80;;;8.30;;
24485;SDS011;13449;49.374;8.584;2024-03-02T02:33:00;23.17;;;8.50;;
24485;SDS011;13449;49.374;8.584;2024-03-02T02:35:27;19.23;;;8.43;;
24485;SDS011;13449;49.374;8.584;2024-03-02T02:37:55;17.45;;;8.15;;
24485;SDS011;13449;49.374;8.584;2024-03-02T02:40:23;18.67;;;8.68;;
24485;SDS011;13449;49.374;8.584;2024-03-02T02:42:50;21.05;;;9.02;;
24485;SDS011;13449;49.374;8.584;2024-03-02T02:45:19;18.25;;;8.07;;
24485;SDS011;13449;49.374;8.584;2024-03-02T02:47:46;19.48;;;8.55;;
24485;SDS011;13449;49.374;8.584;2024-03-02T02:50:14;17.42;;;8.15;;
24485;SDS011;13449;49.374;8.584;2024-03-02T02:52:41;21.23;;;8.10;;
24485;SDS011;13449;49.374;8.584;2024-03-02T02:55:11;21.95;;;9.07;;
24485;SDS011;13449;49.374;8.584;2024-03-02T02:57:40;15.57;;;7.50;;
24485;SDS011;13449;49.374;8.584;2024-03-02T03:00:10;16.88;;;7.90;;
24485;SDS011;13449;49.374;8.584;2024-03-02T03:02:48;18.92;;;8.45;;
24485;SDS011;13449;49.374;8.584;2024-03-02T03:05:17;14.68;;;7.15;;
24485;SDS011;13449;49.374;8.584;2024-03-02T03:07:44;14.85;;;7.28;;
24485;SDS011;13449;49.374;8.584;2024-03-02T03:10:16;17.50;;;8.25;;
24485;SDS011;13449;49.374;8.584;2024-03-02T03:12:49;14.50;;;7.60;;
24485;SDS011;13449;49.374;8.584;2024-03-02T03:15:16;15.13;;;7.57;;
24485;SDS011;13449;49.374;8.584;2024-03-02T03:17:43;12.35;;;6.93;;
24485;SDS011;13449;49.374;8.584;2024-03-02T03:20:13;17.42;;;8.30;;
24485;SDS011;13449;49.374;8.584;2024-03-02T03:22:41;18.23;;;8.10;;
24485;SDS011;13449;49.374;8.584;2024-03-02T03:25:08;16.52;;;7.15;;
24485;SDS011;13449;49.374;8.584;2024-03-02T03:27:37;17.17;;;7.70;;
24485;SDS011;13449;49.374;8.584;2024-03-02T03:30:04;17.88;;;7.53;;
24485;SDS011;13449;49.374;8.584;2024-03-02T03:32:33;17.10;;;7.38;;
24485;SDS011;13449;49.374;8.584;2024-03-02T03:34:59;12.13;;;6.18;;
24485;SDS011;13449;49.374;8.584;2024-03-02T03:37:26;16.15;;;6.40;;
24485;SDS011;13449;49.374;8.584;2024-03-02T03:39:59;11.85;;;6.50;;
24485;SDS011;13449;49.374;8.584;2024-03-02T03:42:27;18.50;;;8.20;;
24485;SDS011;13449;49.374;8.584;2024-03-02T03:44:54;17.63;;;7.45;;
24485;SDS011;13449;49.374;8.584;2024-03-02T03:47:20;20.23;;;7.60;;
24485;SDS011;13449;49.374;8.584;2024-03-02T03:49:46;20.00;;;7.95;;
24485;SDS011;13449;49.374;8.584;2024-03-02T03:52:13;16.10;;;7.18;;
24485;SDS011;13449;49.374;8.584;2024-03-02T03:54:40;16.73;;;7.80;;
24485;SDS011;13449;49.374;8.584;2024-03-02T03:57:09;23.60;;;7.07;;
24485;SDS011;13449;49.374;8.584;2024-03-02T03:59:35;16.60;;;7.70;;
24485;SDS011;13449;49.374;8.584;2024-03-02T04:02:03;19.85;;;8.35;;
24485;SDS011;13449;49.374;8.584;2024-03-02T04:04:30;17.67;;;8.02;;
24485;SDS011;13449;49.374;8.584;2024-03-02T04:06:57;12.52;;;7.03;;
24485;SDS011;13449;49.374;8.584;2024-03-02T04:09:24;16.40;;;7.70;;
24485;SDS011;13449;49.374;8.584;2024-03-02T04:11:52;17.08;;;8.13;;
24485;SDS011;13449;49.374;8.584;2024-03-02T04:14:19;16.73;;;8.73;;
24485;SDS011;13449;49.374;8.584;2024-03-02T04:16:46;16.50;;;8.05;;
24485;SDS011;13449;49.374;8.584;2024-03-02T04:19:13;17.98;;;8.40;;
24485;SDS011;13449;49.374;8.584;2024-03-02T04:21:39;26.45;;;9.43;;
24485;SDS011;13449;49.374;8.584;2024-03-02T04:24:06;25.20;;;10.55;;
24485;SDS011;13449;49.374;8.584;2024-03-02T04:26:35;26.30;;;10.25;;
24485;SDS011;13449;49.374;8.584;2024-03-02T04:29:02;19.40;;;9.07;;
24485;SDS011;13449;49.374;8.584;2024-03-02T04:31:28;16.58;;;8.30;;
24485;SDS011;13449;49.374;8.584;2024-03-02T04:33:56;15.27;;;8.77;;
24485;SDS011;13449;49.374;8.584;2024-03-02T04:36:22;18.20;;;8.82;;
24485;SDS011;13449;49.374;8.584;2024-03-02T04:38:51;29.20;;;9.68;;
24485;SDS011;13449;49.374;8.584;2024-03-02T04:41:18;18.95;;;9.25;;
24485;SDS011;13449;49.374;8.584;2024-03-02T04:43:44;19.17;;;8.68;;
24485;SDS011;13449;49.374;8.584;2024-03-02T04:46:11;20.73;;;8.02;;
24485;SDS011;13449;49.374;8.584;2024-03-02T04:48:40;18.50;;;9.82;;
24485;SDS011;13449;49.374;8.584;2024-03-02T04:51:06;20.45;;;9.65;;
24485;SDS011;13449;49.374;8.584;2024-03-02T04:53:33;18.02;;;10.15;;
24485;SDS011;13449;49.374;8.584;2024-03-02T04:56:00;20.17;;;8.98;;
24485;SDS011;13449;49.374;8.584;2024-03-02T04:59:02;21.10;;;9.57;;
24485;SDS011;13449;49.374;8.584;2024-03-02T05:01:29;20.05;;;9.32;;
24485;SDS011;13449;49.374;8.584;2024-03-02T05:03:56;22.88;;;8.65;;
24485;SDS011;13449;49.374;8.584;2024-03-02T05:06:25;17.13;;;7.72;;
24485;SDS011;13449;49.374;8.584;2024-03-02T05:08:55;17.52;;;8.63;;
24485;SDS011;13449;49.374;8.584;2024-03-02T05:11:22;17.48;;;8.13;;
24485;SDS011;13449;49.374;8.584;2024-03-02T05:14:12;18.90;;;8.55;;
24485;SDS011;13449;49.374;8.584;2024-03-02T05:16:39;23.55;;;9.40;;
24485;SDS011;13449;49.374;8.584;2024-03-02T05:19:06;17.40;;;8.48;;
24485;SDS011;13449;49.374;8.584;2024-03-02T05:21:35;15.15;;;8.10;;
24485;SDS011;13449;49.374;8.584;2024-03-02T05:24:02;18.60;;;8.63;;
24485;SDS011;13449;49.374;8.584;2024-03-02T05:26:29;13.18;;;7.32;;
24485;SDS011;13449;49.374;8.584;2024-03-02T05:28:56;17.35;;;8.38;;
24485;SDS011;13449;49.374;8.584;2024-03-02T05:31:22;14.15;;;7.93;;
24485;SDS011;13449;49.374;8.584;2024-03-02T05:33:49;19.65;;;7.72;;
24485;SDS011;13449;49.374;8.584;2024-03-02T05:36:22;18.13;;;9.02;;
24485;SDS011;13449;49.374;8.584;2024-03-02T05:38:48;20.50;;;8.00;;
24485;SDS011;13449;49.374;8.584;2024-03-02T05:41:15;17.85;;;7.97;;
24485;SDS011;13449;49.374;8.584;2024-03-02T05:43:43;16.88;;;7.22;;
24485;SDS011;13449;49.374;8.584;2024-03-02T05:46:09;19.35;;;7.45;;
24485;SDS011;13449;49.374;8.584;2024-03-02T05:48:38;13.70;;;7.03;;
24485;SDS011;13449;49.374;8.584;2024-03-02T05:51:05;15.13;;;7.47;;
24485;SDS011;13449;49.374;8.584;2024-03-02T05:53:32;21.85;;;10.05;;
24485;SDS011;13449;49.374;8.584;2024-03-02T05:56:04;24.20;;;9.80;;
24485;SDS011;13449;49.374;8.584;2024-03-02T05:58:35;21.38;;;9.15;;
24485;SDS011;13449;49.374;8.584;2024-03-02T06:01:20;17.48;;;9.65;;
24485;SDS011;13449;49.374;8.584;2024-03-02T06:03:55;17.92;;;9.75;;
24485;SDS011;13449;49.374;8.584;2024-03-02T06:06:22;21.50;;;10.32;;
24485;SDS011;13449;49.374;8.584;2024-03-02T06:08:49;23.45;;;10.10;;
24485;SDS011;13449;49.374;8.584;2024-03-02T06:11:17;24.45;;;10.25;;
24485;SDS011;13449;49.374;8.584;2024-03-02T06:13:45;21.15;;;9.45;;
24485;SDS011;13449;49.374;8.584;2024-03-02T06:16:12;20.48;;;9.20;;
24485;SDS011;13449;49.374;8.584;2024-03-02T06:18:39;18.17;;;9.15;;
24485;SDS011;13449;49.374;8.584;2024-03-02T06:21:12;17.10;;;7.85;;
24485;SDS011;13449;49.374;8.584;2024-03-02T06:23:38;15.70;;;8.27;;
24485;SDS011;13449;49.374;8.584;2024-03-02T06:26:06;14.48;;;8.35;;
24485;SDS011;13449;49.374;8.584;2024-03-02T06:28:35;17.98;;;8.60;;
24485;SDS011;13449;49.374;8.584;2024-03-02T06:31:02;23.92;;;9.60;;
24485;SDS011;13449;49.374;8.584;2024-03-02T06:33:29;17.67;;;9.32;;
24485;SDS011;13449;49.374;8.584;2024-03-02T06:35:55;23.25;;;10.05;;
24485;SDS011;13449;49.374;8.584;2024-03-02T06:38:22;18.27;;;8.70;;
24485;SDS011;13449;49.374;8.584;2024-03-02T06:40:52;17.17;;;8.65;;
24485;SDS011;13449;49.374;8.584;2024-03-02T06:43:18;17.20;;;7.63;;
24485;SDS011;13449;49.374;8.584;2024-03-02T06:45:52;20.88;;;8.63;;
24485;SDS011;13449;49.374;8.584;2024-03-02T06:48:19;21.13;;;8.57;;
24485;SDS011;13449;49.374;8.584;2024-03-02T06:50:49;18.85;;;9.65;;
24485;SDS011;13449;49.374;8.584;2024-03-02T06:53:16;20.05;;;9.88;;
24485;SDS011;13449;49.374;8.584;2024-03-02T06:55:44;19.30;;;8.60;;
24485;SDS011;13449;49.374;8.584;2024-03-02T06:58:15;18.20;;;8.40;;
24485;SDS011;13449;49.374;8.584;2024-03-02T07:00:44;19.10;;;9.57;;
24485;SDS011;13449;49.374;8.584;2024-03-02T07:03:10;23.10;;;9.63;;
24485;SDS011;13449;49.374;8.584;2024-03-02T07:05:37;18.42;;;8.65;;
24485;SDS011;13449;49.374;8.584;2024-03-02T07:08:04;23.73;;;9.18;;
24485;SDS011;13449;49.374;8.584;2024-03-02T07:10:32;19.08;;;8.85;;
24485;SDS011;13449;49.374;8.584;2024-03-02T07:12:58;20.20;;;10.00;;
24485;SDS011;13449;49.374;8.584;2024-03-02T07:15:25;18.63;;;8.48;;
24485;SDS011;13449;49.374;8.584;2024-03-02T07:17:55;19.58;;;8.80;;
24485;SDS011;13449;49.374;8.584;2024-03-02T07:20:22;19.08;;;8.43;;
24485;SDS011;13449;49.374;8.584;2024-03-02T07:22:48;13.63;;;7.38;;
24485;SDS011;13449;49.374;8.584;2024-03-02T07:25:15;15.43;;;7.88;;
24485;SDS011;13449;49.374;8.584;2024-03-02T07:27:44;17.10;;;7.95;;
24485;SDS011;13449;49.374;8.584;2024-03-02T07:30:13;14.13;;;6.93;;
24485;SDS011;13449;49.374;8.584;2024-03-02T07:32:44;15.50;;;7.95;;
24485;SDS011;13449;49.374;8.584;2024-03-02T07:35:13;18.90;;;7.65;;
24485;SDS011;13449;49.374;8.584;2024-03-02T07:37:43;16.73;;;7.72;;
24485;SDS011;13449;49.374;8.584;2024-03-02T07:40:09;18.35;;;8.10;;
24485;SDS011;13449;49.374;8.584;2024-03-02T07:42:40;16.25;;;7.63;;
24485;SDS011;13449;49.374;8.584;2024-03-02T07:45:07;19.02;;;7.70;;
24485;SDS011;13449;49.374;8.584;2024-03-02T07:47:34;18.80;;;8.43;;
24485;SDS011;13449;49.374;8.584;2024-03-02T07:50:01;18.15;;;8.40;;
24485;SDS011;13449;49.374;8.584;2024-03-02T07:52:28;17.52;;;8.40;;
24485;SDS011;13449;49.374;8.584;2024-03-02T07:54:55;16.08;;;8.40;;
24485;SDS011;13449;49.374;8.584;2024-03-02T07:57:22;16.35;;;7.57;;
24485;SDS011;13449;49.374;8.584;2024-03-02T07:59:48;18.23;;;7.50;;
24485;SDS011;13449;49.374;8.584;2024-03-02T08:02:16;17.23;;;9.68;;
24485;SDS011;13449;49.374;8.584;2024-03-02T08:04:44;18.50;;;8.63;;
24485;SDS011;13449;49.374;8.584;2024-03-02T08:07:12;20.58;;;8.85;;
24485;SDS011;13449;49.374;8.584;2024-03-02T08:09:41;19.77;;;8.68;;
24485;SDS011;13449;49.374;8.584;2024-03-02T08:12:08;20.13;;;7.68;;
24485;SDS011;13449;49.374;8.584;2024-03-02T08:14:37;17.88;;;7.72;;
24485;SDS011;13449;49.374;8.584;2024-03-02T08:17:03;12.13;;;6.78;;
24485;SDS011;13449;49.374;8.584;2024-03-02T08:19:35;21.17;;;8.57;;
24485;SDS011;13449;49.374;8.584;2024-03-02T08:22:09;15.75;;;7.97;;
24485;SDS011;13449;49.374;8.584;2024-03-02T08:24:38;18.53;;;8.33;;
24485;SDS011;13449;49.374;8.584;2024-03-02T08:27:05;13.65;;;6.82;;
24485;SDS011;13449;49.374;8.584;2024-03-02T08:29:35;13.95;;;6.88;;
24485;SDS011;13449;49.374;8.584;2024-03-02T08:32:06;12.25;;;7.18;;
24485;SDS011;13449;49.374;8.584;2024-03-02T08:34:33;11.45;;;6.03;;
24485;SDS011;13449;49.374;8.584;2024-03-02T08:37:02;14.05;;;7.15;;
24485;SDS011;13449;49.374;8.584;2024-03-02T08:39:28;14.40;;;6.15;;
24485;SDS011;13449;49.374;8.584;2024-03-02T08:41:55;11.93;;;6.25;;
24485;SDS011;13449;49.374;8.584;2024-03-02T08:44:23;9.65;;;5.35;;
24485;SDS011;13449;49.374;8.584;2024-03-02T08:46:52;12.43;;;5.78;;
24485;SDS011;13449;49.374;8.584;2024-03-02T08:49:21;12.38;;;5.03;;
24485;SDS011;13449;49.374;8.584;2024-03-02T08:51:51;10.70;;;5.03;;
24485;SDS011;13449;49.374;8.584;2024-03-02T08:54:31;11.07;;;5.68;;
24485;SDS011;13449;49.374;8.584;2024-03-02T08:56:58;10.48;;;6.10;;
24485;SDS011;13449;49.374;8.584;2024-03-02T08:59:25;10.23;;;5.40;;
24485;SDS011;13449;49.374;8.584;2024-03-02T09:02:00;11.55;;;5.80;;
24485;SDS011;13449;49.374;8.584;2024-03-02T09:04:29;9.82;;;4.53;;
24485;SDS011;13449;49.374;8.584;2024-03-02T09:07:00;6.00;;;3.80;;
24485;SDS011;13449;49.374;8.584;2024-03-02T09:09:29;8.07;;;4.45;;
24485;SDS011;13449;49.374;8.584;2024-03-02T09:11:58;7.93;;;5.00;;
24485;SDS011;13449;49.374;8.584;2024-03-02T09:14:27;7.30;;;4.32;;
24485;SDS011;13449;49.374;8.584;2024-03-02T09:16:54;4.60;;;3.60;;
24485;SDS011;13449;49.374;8.584;2024-03-02T09:19:20;10.40;;;4.88;;
24485;SDS011;13449;49.374;8.584;2024-03-02T09:21:47;6.45;;;3.83;;
24485;SDS011;13449;49.374;8.584;2024-03-02T09:24:14;4.13;;;3.20;;
24485;SDS011;13449;49.374;8.584;2024-03-02T09:26:43;6.10;;;3.22;;
24485;SDS011;13449;49.374;8.584;2024-03-02T09:29:10;4.20;;;3.22;;
24485;SDS011;13449;49.374;8.584;2024-03-02T09:31:40;4.47;;;3.17;;
24485;SDS011;13449;49.374;8.584;2024-03-02T09:34:08;6.13;;;2.97;;
24485;SDS011;13449;49.374;8.584;2024-03-02T09:36:35;6.05;;;3.08;;
24485;SDS011;13449;49.374;8.584;2024-03-02T09:39:02;4.90;;;3.45;;
24485;SDS011;13449;49.374;8.584;2024-03-02T09:41:30;5.60;;;3.40;;
24485;SDS011;13449;49.374;8.584;2024-03-02T09:44:01;5.90;;;3.88;;
24485;SDS011;13449;49.374;8.584;2024-03-02T09:46:28;6.60;;;3.22;;
24485;SDS011;13449;49.374;8.584;2024-03-02T09:48:56;8.10;;;3.63;;
24485;SDS011;13449;49.374;8.584;2024-03-02T09:51:23;4.28;;;2.78;;
24485;SDS011;13449;49.374;8.584;2024-03-02T09:53:52;5.88;;;3.10;;
24485;SDS011;13449;49.374;8.584;2024-03-02T09:56:23;10.43;;;3.97;;
24485;SDS011;13449;49.374;8.584;2024-03-02T09:58:50;3.85;;;2.80;;
24485;SDS011;13449;49.374;8.584;2024-03-02T10:01:16;7.30;;;4.20;;
24485;SDS011;13449;49.374;8.584;2024-03-02T10:03:44;10.02;;;4.38;;
24485;SDS011;13449;49.374;8.584;2024-03-02T10:06:18;6.72;;;4.18;;
24485;SDS011;13449;49.374;8.584;2024-03-02T10:08:46;6.65;;;3.88;;
24485;SDS011;13449;49.374;8.584;2024-03-02T10:16:37;9.48;;;4.05;;
24485;SDS011;13449;49.374;8.584;2024-03-02T10:19:22;8.40;;;3.20;;
24485;SDS011;13449;49.374;8.584;2024-03-02T10:21:50;4.97;;;3.25;;
24485;SDS011;13449;49.374;8.584;2024-03-02T10:24:18;6.57;;;3.55;;
24485;SDS011;13449;49.374;8.584;2024-03-02T10:26:46;13.20;;;3.72;;
24485;SDS011;13449;49.374;8.584;2024-03-02T10:29:15;4.32;;;2.67;;
24485;SDS011;13449;49.374;8.584;2024-03-02T10:31:44;5.50;;;2.97;;
24485;SDS011;13449;49.374;8.584;2024-03-02T10:34:13;10.38;;;3.65;;
24485;SDS011;13449;49.374;8.584;2024-03-02T10:36:42;4.07;;;2.63;;
24485;SDS011;13449;49.374;8.584;2024-03-02T10:39:12;3.95;;;2.53;;
24485;SDS011;13449;49.374;8.584;2024-03-02T10:41:41;4.03;;;2.55;;
24485;SDS011;13449;49.374;8.584;2024-03-02T10:44:08;4.65;;;2.83;;
24485;SDS011;13449;49.374;8.584;2024-03-02T10:46:36;6.03;;;3.03;;
24485;SDS011;13449;49.374;8.584;2024-03-02T10:49:05;4.10;;;2.75;;
24485;SDS011;13449;49.374;8.584;2024-03-02T10:51:34;4.15;;;2.33;;
24485;SDS011;13449;49.374;8.584;2024-03-02T10:54:03;5.30;;;3.13;;
24485;SDS011;13449;49.374;8.584;2024-03-02T10:56:39;3.88;;;2.55;;
24485;SDS011;13449;49.374;8.584;2024-03-02T11:02:11;4.45;;;2.70;;
24485;SDS011;13449;49.374;8.584;2024-03-02T11:04:40;3.95;;;2.80;;
24485;SDS011;13449;49.374;8.584;2024-03-02T11:07:10;5.43;;;3.08;;
24485;SDS011;13449;49.374;8.584;2024-03-02T11:09:41;5.82;;;3.30;;
24485;SDS011;13449;49.374;8.584;2024-03-02T11:12:36;4.95;;;3.10;;
24485;SDS011;13449;49.374;8.584;2024-03-02T11:15:11;4.22;;;3.05;;
24485;SDS011;13449;49.374;8.584;2024-03-02T11:17:47;5.47;;;3.03;;
24485;SDS011;13449;49.374;8.584;2024-03-02T11:20:14;6.38;;;2.97;;
24485;SDS011;13449;49.374;8.584;2024-03-02T11:22:45;4.22;;;2.88;;
24485;SDS011;13449;49.374;8.584;2024-03-02T11:25:31;4.75;;;3.17;;
24485;SDS011;13449;49.374;8.584;2024-03-02T11:28:01;4.22;;;3.25;;
24485;SDS011;13449;49.374;8.584;2024-03-02T11:33:00;3.45;;;2.63;;
24485;SDS011;13449;49.374;8.584;2024-03-02T11:35:42;8.90;;;3.30;;
24485;SDS011;13449;49.374;8.584;2024-03-02T11:38:13;5.32;;;3.10;;
24485;SDS011;13449;49.374;8.584;2024-03-02T11:40:39;3.95;;;2.78;;
24485;SDS011;13449;49.374;8.584;2024-03-02T11:43:07;4.00;;;2.78;;
24485;SDS011;13449;49.374;8.584;2024-03-02T11:45:35;4.32;;;2.33;;
24485;SDS011;13449;49.374;8.584;2024-03-02T11:48:06;3.22;;;2.10;;
24485;SDS011;13449;49.374;8.584;2024-03-02T11:50:42;3.85;;;2.63;;
24485;SDS011;13449;49.374;8.584;2024-03-02T11:53:13;4.75;;;3.03;;
24485;SDS011;13449;49.374;8.584;2024-03-02T11:55:40;5.22;;;2.65;;
24485;SDS011;13449;49.374;8.584;2024-03-02T11:58:07;2.42;;;1.83;;
24485;SDS011;13449;49.374;8.584;2024-03-02T12:00:34;4.80;;;2.20;;
24485;SDS011;13449;49.374;8.584;2024-03-02T12:03:03;3.75;;;2.00;;
24485;SDS011;13449;49.374;8.584;2024-03-02T12:05:31;2.17;;;1.50;;
24485;SDS011;13449;49.374;8.584;2024-03-02T12:08:02;4.97;;;2.10;;
24485;SDS011;13449;49.374;8.584;2024-03-02T12:10:30;5.68;;;1.63;;
24485;SDS011;13449;49.374;8.584;2024-03-02T12:12:58;2.08;;;1.60;;
24485;SDS011;13449;49.374;8.584;2024-03-02T12:15:34;1.90;;;1.60;;
24485;SDS011;13449;49.374;8.584;2024-03-02T12:18:03;3.10;;;1.85;;
24485;SDS011;13449;49.374;8.584;2024-03-02T12:20:31;3.50;;;1.90;;
24485;SDS011;13449;49.374;8.584;2024-03-02T12:23:02;1.80;;;1.50;;
24485;SDS011;13449;49.374;8.584;2024-03-02T12:25:31;3.28;;;2.42;;
24485;SDS011;13449;49.374;8.584;2024-03-02T12:28:00;3.80;;;2.10;;
24485;SDS011;13449;49.374;8.584;2024-03-02T12:30:29;2.38;;;1.83;;
24485;SDS011;13449;49.374;8.584;2024-03-02T12:32:57;3.75;;;2.05;;
24485;SDS011;13449;49.374;8.584;2024-03-02T12:35:24;3.40;;;2.13;;
24485;SDS011;13449;49.374;8.584;2024-03-02T12:37:52;4.13;;;1.67;;
24485;SDS011;13449;49.374;8.584;2024-03-02T12:40:20;2.20;;;1.92;;
24485;SDS011;13449;49.374;8.584;2024-03-02T12:42:49;3.78;;;2.40;;
24485;SDS011;13449;49.374;8.584;2024-03-02T12:45:18;3.03;;;2.00;;
24485;SDS011;13449;49.374;8.584;2024-03-02T12:47:53;6.25;;;2.58;;
24485;SDS011;13449;49.374;8.584;2024-03-02T12:50:20;3.88;;;2.20;;
24485;SDS011;13449;49.374;8.584;2024-03-02T12:52:51;2.40;;;1.90;;
24485;SDS011;13449;49.374;8.584;2024-03-02T12:55:22;2.95;;;1.95;;
24485;SDS011;13449;49.374;8.584;2024-03-02T12:57:50;3.17;;;2.03;;
24485;SDS011;13449;49.374;8.584;2024-03-02T13:00:19;2.85;;;2.35;;
24485;SDS011;13449;49.374;8.584;2024-03-02T13:02:48;3.47;;;2.78;;
24485;SDS011;13449;49.374;8.584;2024-03-02T13:05:18;5.03;;;2.92;;
24485;SDS011;13449;49.374;8.584;2024-03-02T13:07:49;3.75;;;2.58;;
24485;SDS011;13449;49.374;8.584;2024-03-02T13:10:16;4.55;;;2.85;;
24485;SDS011;13449;49.374;8.584;2024-03-02T13:12:43;7.30;;;2.70;;
24485;SDS011;13449;49.374;8.584;2024-03-02T13:15:13;3.90;;;2.53;;
24485;SDS011;13449;49.374;8.584;2024-03-02T13:17:44;3.13;;;2.53;;
24485;SDS011;13449;49.374;8.584;2024-03-02T13:20:13;3.03;;;2.50;;
24485;SDS011;13449;49.374;8.584;2024-03-02T13:22:41;6.60;;;3.03;;
24485;SDS011;13449;49.374;8.584;2024-03-02T13:25:08;2.63;;;2.13;;
24485;SDS011;13449;49.374;8.584;2024-03-02T13:27:36;4.85;;;2.72;;
24485;SDS011;13449;49.374;8.584;2024-03-02T13:30:03;8.30;;;4.75;;
24485;SDS011;13449;49.374;8.584;2024-03-02T13:32:32;5.78;;;4.38;;
24485;SDS011;13449;49.374;8.584;2024-03-02T13:34:58;4.60;;;2.75;;
24485;SDS011;13449;49.374;8.584;2024-03-02T13:37:25;3.03;;;1.88;;
24485;SDS011;13449;49.374;8.584;2024-03-02T13:39:52;4.00;;;2.20;;
24485;SDS011;13449;49.374;8.584;2024-03-02T13:42:18;3.83;;;2.53;;
24485;SDS011;13449;49.374;8.584;2024-03-02T13:44:45;4.40;;;2.28;;
24485;SDS011;13449;49.374;8.584;2024-03-02T13:47:13;9.25;;;2.38;;
24485;SDS011;13449;49.374;8.584;2024-03-02T13:49:41;3.60;;;2.22;;
24485;SDS011;13449;49.374;8.584;2024-03-02T13:52:13;2.45;;;1.95;;
24485;SDS011;13449;49.374;8.584;2024-03-02T13:54:41;3.22;;;1.60;;
24485;SDS011;13449;49.374;8.584;2024-03-02T13:57:13;3.30;;;2.35;;
24485;SDS011;13449;49.374;8.584;2024-03-02T13:59:40;3.20;;;1.75;;
24485;SDS011;13449;49.374;8.584;2024-03-02T14:02:08;7.00;;;2.20;;
24485;SDS011;13449;49.374;8.584;2024-03-02T14:04:36;3.70;;;1.90;;
24485;SDS011;13449;49.374;8.584;2024-03-02T14:07:03;2.78;;;2.17;;
24485;SDS011;13449;49.374;8.584;2024-03-02T14:09:37;1.98;;;1.70;;
24485;SDS011;13449;49.374;8.584;2024-03-02T14:12:04;3.15;;;1.52;;
24485;SDS011;13449;49.374;8.584;2024-03-02T14:14:34;4.63;;;2.38;;
24485;SDS011;13449;49.374;8.584;2024-03-02T14:17:00;4.95;;;1.90;;
24485;SDS011;13449;49.374;8.584;2024-03-02T14:19:33;5.22;;;1.45;;
24485;SDS011;13449;49.374;8.584;2024-03-02T14:21:59;3.78;;;1.70;;
24485;SDS011;13449;49.374;8.584;2024-03-02T14:24:26;5.13;;;1.63;;
24485;SDS011;13449;49.374;8.584;2024-03-02T14:26:55;1.50;;;1.40;;
24485;SDS011;13449;49.374;8.584;2024-03-02T14:29:35;3.67;;;1.63;;
24485;SDS011;13449;49.374;8.584;2024-03-02T14:32:04;4.35;;;1.90;;
24485;SDS011;13449;49.374;8.584;2024-03-02T14:34:33;2.55;;;1.58;;
24485;SDS011;13449;49.374;8.584;2024-03-02T14:37:02;1.55;;;1.45;;
24485;SDS011;13449;49.374;8.584;2024-03-02T14:39:29;3.05;;;1.70;;
24485;SDS011;13449;49.374;8.584;2024-03-02T14:42:00;4.10;;;1.50;;
24485;SDS011;13449;49.374;8.584;2024-03-02T14:44:27;7.80;;;5.53;;
24485;SDS011;13449;49.374;8.584;2024-03-02T14:46:54;0.80;;;0.80;;
24485;SDS011;13449;49.374;8.584;2024-03-02T14:49:21;2.00;;;1.58;;
24485;SDS011;13449;49.374;8.584;2024-03-02T14:51:47;6.05;;;2.78;;
24485;SDS011;13449;49.374;8.584;2024-03-02T14:54:16;9.88;;;1.60;;
24485;SDS011;13449;49.374;8.584;2024-03-02T14:56:42;1.80;;;1.48;;
24485;SDS011;13449;49.374;8.584;2024-03-02T14:59:09;3.75;;;1.75;;
24485;SDS011;13449;49.374;8.584;2024-03-02T15:01:37;4.72;;;3.08;;
24485;SDS011;13449;49.374;8.584;2024-03-02T15:04:04;2.30;;;1.42;;
24485;SDS011;13449;49.374;8.584;2024-03-02T15:06:31;2.55;;;1.50;;
24485;SDS011;13449;49.374;8.584;2024-03-02T15:09:00;5.28;;;1.95;;
24485;SDS011;13449;49.374;8.584;2024-03-02T15:11:28;2.05;;;1.85;;
24485;SDS011;13449;49.374;8.584;2024-03-02T15:13:55;4.57;;;3.35;;